Mattoon, Illinois
Current Conditions -  °F | °C
As of 1:53 PM on Wednesday 28 Jan 2015 (Local Time) from KMTO Reporting Station
Clear Clear  
Wind Chill: 27°   Ceiling: Unl
Heat Index: 37°   Visibility: 10mi
Dew Point: 25°   Wind: 20mph
Humidity: 62%   Direction: 160°SSE
Pressure: 30.13"   Gusts: 26mph
Location:  39.48°N, 88.37°W
Report Text: KMTO 281953Z AUTO 16017G23KT 10SM CLR 03/M04 A3013 RMK AO2 SLP209 T00281039
Loading
Personal Weather Stations






























Interactive Weather Map New forecast layout! Learn more

10-Day Weather Forecast

Advertisements
Track Severe Weather on mobile